MET'MAP v2.0
soon released !

Expected late october,
this new version will be
more efficient, smarter,
and hosted on a brand new
server x3 powerfull...
...and still free !


Not compatible ?
Try the mobile version !

LOG IN : | Subscribe | Disclaimer | Who is Orbifly ? |
ICAO code :

TAF - EGBJ Gloucestershire Airport - 12 Dec 2019 19:26 UTC
Data Sources :     NOAA   


- Airport Elevation : 101 ft
- IATA code : GLO
- No reported NOTAMs.


EGBJ - Gloucestershire Airport

Latest METAR recorded : 2015/08/11 08:20 EGBJ 110820Z 00000KT CAVOK 14/12 Q1020
TAF TAF EGBJ
Valid from the 12 at 18:00 until the 12 at 20:00 UTC


121655Z 1218/1220 24010KT 9999 FEW014 BKN020
TEMPO 1218/1220 6000 SHRA BKN014
PROB30
TEMPO 1218/1220 3000 +SHRA BKN008

Source NOAA


MET'MAP, your aeronautical weather chart ! - Copyright ORBIFLY December 2007

Programming & Development : Alexandra Zaïnal
Co-Developer : Marc-Olivier Méhu
Technical & hardware support : Manuel Goepfert
Concept & Financing : Baudouin d'Aumeries